Time,TemperatureF,DewpointF,PressureIn,WindDirection,WindDirectionDegrees,WindSpeedMPH,WindSpeedGustMPH,Humidity,HourlyPrecipIn,Conditions,Clouds,dailyrainin,SoftwareType,DateUTC
2013-04-17 00:00:00,49.8,38.0,30.06,WSW,246,7.0,10.0,64,0.00,,,0.00,,2013-04-17 07:00:00,
2013-04-17 00:10:00,50.8,39.0,30.06,West,275,4.0,9.0,64,0.00,,,0.00,,2013-04-17 07:10:00,
2013-04-17 00:20:00,50.4,39.0,30.06,NNW,328,1.0,7.0,65,0.00,,,0.00,,2013-04-17 07:20:00,
2013-04-17 00:30:00,49.4,38.0,30.06,West,281,2.0,6.0,64,0.00,,,0.00,,2013-04-17 07:30:00,
2013-04-17 00:40:00,48.5,39.0,30.07,NW,306,1.0,3.0,69,0.00,,,0.00,,2013-04-17 07:40:00,
2013-04-17 00:50:00,47.6,38.0,30.07,WNW,292,0.0,3.0,70,0.00,,,0.00,,2013-04-17 07:50:00,
2013-04-17 01:00:00,47.4,38.0,30.07,WNW,298,1.0,4.0,69,0.00,,,0.00,,2013-04-17 08:00:00,
2013-04-17 01:10:00,46.4,38.0,30.07,WNW,298,1.0,2.0,71,0.00,,,0.00,,2013-04-17 08:10:00,
2013-04-17 01:20:00,45.0,37.0,30.07,WNW,297,3.0,3.0,73,0.00,,,0.00,,2013-04-17 08:20:00,
2013-04-17 01:30:00,45.1,37.0,30.07,WNW,297,3.0,3.0,74,0.00,,,0.00,,2013-04-17 08:30:00,
2013-04-17 01:40:00,46.0,38.0,30.06,WSW,250,4.0,6.0,74,0.00,,,0.00,,2013-04-17 08:40:00,
2013-04-17 01:50:00,47.1,37.0,30.06,West,274,0.0,6.0,67,0.00,,,0.00,,2013-04-17 08:50:00,
2013-04-17 02:00:00,46.3,36.0,30.06,WSW,254,4.0,5.0,66,0.00,,,0.00,,2013-04-17 09:00:00,
2013-04-17 02:10:00,49.1,33.0,30.06,WSW,254,6.0,8.0,54,0.00,,,0.00,,2013-04-17 09:10:00,
2013-04-17 02:20:00,51.5,33.0,30.06,SW,235,7.0,10.0,50,0.00,,,0.00,,2013-04-17 09:20:00,
2013-04-17 02:30:00,52.2,33.0,30.06,West,275,7.0,10.0,47,0.00,,,0.00,,2013-04-17 09:30:00,
2013-04-17 02:40:00,51.1,38.0,30.06,WSW,251,11.0,12.0,60,0.00,,,0.00,,2013-04-17 09:40:00,
2013-04-17 02:50:00,49.9,39.0,30.06,WSW,248,12.0,12.0,65,0.00,,,0.00,,2013-04-17 09:50:00,
2013-04-17 03:00:00,49.7,38.0,30.06,WSW,257,8.0,12.0,64,0.00,,,0.00,,2013-04-17 10:00:00,
2013-04-17 03:10:00,49.5,37.0,30.06,WSW,252,4.0,10.0,62,0.00,,,0.00,,2013-04-17 10:10:00,
2013-04-17 03:20:00,48.5,38.0,30.06,WNW,302,0.0,2.0,66,0.00,,,0.00,,2013-04-17 10:20:00,
2013-04-17 03:30:00,45.9,37.0,30.06,WNW,302,0.0,3.0,70,0.00,,,0.00,,2013-04-17 10:30:00,
2013-04-17 03:40:00,44.0,36.0,30.06,West,281,0.0,3.0,73,0.00,,,0.00,,2013-04-17 10:40:00,
2013-04-17 03:50:00,42.4,35.0,30.06,ENE,63,0.0,3.0,76,0.00,,,0.00,,2013-04-17 10:50:00,
2013-04-17 04:00:00,41.4,35.0,30.07,ENE,63,2.0,2.0,78,0.00,,,0.00,,2013-04-17 11:00:00,
2013-04-17 04:10:00,40.4,34.0,30.07,SE,127,0.0,3.0,79,0.00,,,0.00,,2013-04-17 11:10:00,
2013-04-17 04:20:00,40.1,34.0,30.07,SSE,162,0.0,3.0,79,0.00,,,0.00,,2013-04-17 11:20:00,
2013-04-17 04:30:00,39.7,34.0,30.08,SSE,162,2.0,3.0,80,0.00,,,0.00,,2013-04-17 11:30:00,
2013-04-17 04:40:00,39.6,34.0,30.07,SSW,199,3.0,3.0,79,0.00,,,0.00,,2013-04-17 11:40:00,
2013-04-17 04:50:00,39.4,33.0,30.07,SW,230,0.0,4.0,79,0.00,,,0.00,,2013-04-17 11:50:00,
2013-04-17 05:00:00,39.5,33.0,30.07,SW,230,1.0,4.0,78,0.00,,,0.00,,2013-04-17 12:00:00,
2013-04-17 05:10:00,41.1,36.0,30.08,SW,220,2.0,3.0,81,0.00,,,0.00,,2013-04-17 12:10:00,
2013-04-17 05:20:00,45.7,41.0,30.08,SW,229,4.0,7.0,84,0.00,,,0.00,,2013-04-17 12:20:00,
2013-04-17 05:30:00,47.5,43.0,30.08,WSW,257,4.0,11.0,84,0.00,,,0.00,,2013-04-17 12:30:00,
2013-04-17 05:40:00,47.1,41.0,30.08,West,267,4.0,7.0,80,0.00,,,0.00,,2013-04-17 12:40:00,
2013-04-17 05:50:00,47.5,40.0,30.08,WSW,253,7.0,7.0,74,0.00,,,0.00,,2013-04-17 12:50:00,
2013-04-17 06:00:00,47.7,37.0,30.09,West,268,3.0,7.0,67,0.00,,,0.00,,2013-04-17 13:00:00,
2013-04-17 06:10:00,46.4,36.0,30.09,WSW,248,3.0,6.0,68,0.00,,,0.00,,2013-04-17 13:10:00,
2013-04-17 06:20:00,45.3,36.0,30.09,WSW,245,2.0,5.0,69,0.00,,,0.00,,2013-04-17 13:20:00,
2013-04-17 06:30:00,45.1,36.0,30.10,WSW,252,0.0,5.0,70,0.00,,,0.00,,2013-04-17 13:30:00,
2013-04-17 06:40:00,44.2,36.0,30.10,WSW,251,2.0,3.0,72,0.00,,,0.00,,2013-04-17 13:40:00,
2013-04-17 06:50:00,43.5,35.0,30.10,WSW,251,0.0,3.0,73,0.00,,,0.00,,2013-04-17 13:50:00,
2013-04-17 07:00:00,42.9,35.0,30.11,WSW,251,1.0,1.0,74,0.00,,,0.00,,2013-04-17 14:00:00,
2013-04-17 07:10:00,43.4,36.0,30.12,WSW,251,1.0,2.0,75,0.00,,,0.00,,2013-04-17 14:10:00,
2013-04-17 07:20:00,44.8,38.0,30.12,WSW,251,0.0,2.0,77,0.00,,,0.00,,2013-04-17 14:20:00,
2013-04-17 07:30:00,46.9,38.0,30.13,WSW,251,1.0,2.0,71,0.00,,,0.00,,2013-04-17 14:30:00,
2013-04-17 07:40:00,49.6,40.0,30.13,WSW,251,0.0,1.0,69,0.00,,,0.00,,2013-04-17 14:40:00,
2013-04-17 07:50:00,51.6,40.0,30.13,NNE,24,0.0,3.0,65,0.00,,,0.00,,2013-04-17 14:50:00,
2013-04-17 08:00:00,52.7,38.0,30.14,NE,53,0.0,3.0,58,0.00,,,0.00,,2013-04-17 15:00:00,
2013-04-17 08:10:00,55.5,39.0,30.14,West,265,1.0,5.0,53,0.00,,,0.00,,2013-04-17 15:10:00,
2013-04-17 08:20:00,58.0,33.0,30.14,SW,235,2.0,7.0,38,0.00,,,0.00,,2013-04-17 15:20:00,
2013-04-17 08:30:00,59.0,31.0,30.14,SSW,195,1.0,6.0,35,0.00,,,0.00,,2013-04-17 15:30:00,
2013-04-17 08:40:00,61.4,36.0,30.15,NNE,28,0.0,4.0,39,0.00,,,0.00,,2013-04-17 15:40:00,
2013-04-17 08:50:00,59.5,35.0,30.15,SSW,212,4.0,10.0,40,0.00,,,0.00,,2013-04-17 15:50:00,
2013-04-17 09:00:00,58.0,36.0,30.15,West,281,5.0,10.0,44,0.00,,,0.00,,2013-04-17 16:00:00,
2013-04-17 09:10:00,59.1,35.0,30.15,WSW,251,2.0,7.0,41,0.00,,,0.00,,2013-04-17 16:10:00,
2013-04-17 09:20:00,59.5,35.0,30.15,WSW,248,7.0,9.0,39,0.00,,,0.00,,2013-04-17 16:20:00,
2013-04-17 09:30:00,60.3,36.0,30.15,SW,227,2.0,6.0,41,0.00,,,0.00,,2013-04-17 16:30:00,
2013-04-17 09:40:00,61.5,38.0,30.15,WSW,237,9.0,9.0,41,0.00,,,0.00,,2013-04-17 16:40:00,
2013-04-17 09:50:00,59.7,39.0,30.15,WSW,250,3.0,8.0,46,0.00,,,0.00,,2013-04-17 16:50:00,
2013-04-17 10:00:00,60.3,35.0,30.15,WSW,246,3.0,9.0,39,0.00,,,0.00,,2013-04-17 17:00:00,
2013-04-17 10:10:00,60.9,38.0,30.15,WSW,258,2.0,9.0,42,0.00,,,0.00,,2013-04-17 17:10:00,
2013-04-17 10:20:00,61.8,37.0,30.15,West,265,5.0,10.0,39,0.00,,,0.00,,2013-04-17 17:20:00,
2013-04-17 10:30:00,61.9,39.0,30.15,WSW,240,8.0,11.0,43,0.00,,,0.00,,2013-04-17 17:30:00,
2013-04-17 10:40:00,62.1,38.0,30.15,WNW,287,5.0,12.0,41,0.00,,,0.00,,2013-04-17 17:40:00,
2013-04-17 10:50:00,62.2,39.0,30.15,West,273,7.0,13.0,42,0.00,,,0.00,,2013-04-17 17:50:00,
2013-04-17 11:00:00,62.2,39.0,30.15,West,271,8.0,13.0,42,0.00,,,0.00,,2013-04-17 18:00:00,
2013-04-17 11:10:00,63.2,37.0,30.15,WSW,248,9.0,12.0,38,0.00,,,0.00,,2013-04-17 18:10:00,
2013-04-17 11:20:00,63.8,36.0,30.15,WNW,290,1.0,12.0,35,0.00,,,0.00,,2013-04-17 18:20:00,
2013-04-17 11:30:00,64.3,38.0,30.15,WNW,296,5.0,13.0,38,0.00,,,0.00,,2013-04-17 18:30:00,
2013-04-17 11:40:00,64.1,39.0,30.15,WNW,299,6.0,13.0,40,0.00,,,0.00,,2013-04-17 18:40:00,
2013-04-17 11:50:00,63.6,40.0,30.15,WSW,256,3.0,17.0,42,0.00,,,0.00,,2013-04-17 18:50:00,
2013-04-17 12:00:00,63.2,40.0,30.15,NW,311,8.0,21.0,43,0.00,,,0.00,,2013-04-17 19:00:00,
2013-04-17 12:10:00,63.4,42.0,30.14,NW,313,15.0,20.0,45,0.00,,,0.00,,2013-04-17 19:10:00,
2013-04-17 12:20:00,62.5,43.0,30.14,SW,231,12.0,18.0,48,0.00,,,0.00,,2013-04-17 19:20:00,
2013-04-17 12:30:00,63.4,42.0,30.14,WNW,282,13.0,21.0,46,0.00,,,0.00,,2013-04-17 19:30:00,
2013-04-17 12:40:00,64.0,42.0,30.14,NW,311,11.0,17.0,44,0.00,,,0.00,,2013-04-17 19:40:00,
2013-04-17 12:50:00,64.0,42.0,30.14,WNW,285,6.0,16.0,44,0.00,,,0.00,,2013-04-17 19:50:00,
2013-04-17 13:00:00,66.2,40.0,30.13,West,266,8.0,16.0,38,0.00,,,0.00,,2013-04-17 20:00:00,
2013-04-17 13:10:00,66.1,38.0,30.13,WNW,296,3.0,18.0,36,0.00,,,0.00,,2013-04-17 20:10:00,
2013-04-17 13:20:00,65.8,39.0,30.13,WNW,282,11.0,17.0,38,0.00,,,0.00,,2013-04-17 20:20:00,
2013-04-17 13:30:00,65.4,39.0,30.12,WNW,291,12.0,20.0,38,0.00,,,0.00,,2013-04-17 20:30:00,
2013-04-17 13:40:00,65.7,39.0,30.12,NW,311,11.0,19.0,38,0.00,,,0.00,,2013-04-17 20:40:00,
2013-04-17 13:50:00,65.3,40.0,30.12,WSW,251,14.0,21.0,40,0.00,,,0.00,,2013-04-17 20:50:00,
2013-04-17 14:00:00,64.8,42.0,30.13,WNW,290,7.0,19.0,43,0.00,,,0.00,,2013-04-17 21:00:00,
2013-04-17 14:10:00,62.2,42.0,30.12,NW,307,13.0,24.0,48,0.00,,,0.00,,2013-04-17 21:10:00,
2013-04-17 14:20:00,62.6,42.0,30.12,WNW,286,14.0,21.0,47,0.00,,,0.00,,2013-04-17 21:20:00,
2013-04-17 14:30:00,62.7,42.0,30.12,WNW,297,12.0,23.0,47,0.00,,,0.00,,2013-04-17 21:30:00,
2013-04-17 14:40:00,62.1,42.0,30.12,WNW,299,14.0,24.0,47,0.00,,,0.00,,2013-04-17 21:40:00,
2013-04-17 14:50:00,62.9,42.0,30.12,WNW,287,10.0,21.0,46,0.00,,,0.00,,2013-04-17 21:50:00,
2013-04-17 15:00:00,62.8,42.0,30.11,WNW,294,17.0,20.0,46,0.00,,,0.00,,2013-04-17 22:00:00,
2013-04-17 15:10:00,62.7,42.0,30.11,WNW,288,11.0,30.0,47,0.00,,,0.00,,2013-04-17 22:10:00,
2013-04-17 15:20:00,62.8,41.0,30.10,West,265,12.0,21.0,45,0.00,,,0.00,,2013-04-17 22:20:00,
2013-04-17 15:30:00,62.3,42.0,30.11,West,273,12.0,21.0,47,0.00,,,0.00,,2013-04-17 22:30:00,
2013-04-17 15:40:00,61.8,42.0,30.10,West,281,16.0,21.0,49,0.00,,,0.00,,2013-04-17 22:40:00,
2013-04-17 15:50:00,61.4,43.0,30.10,WNW,289,11.0,19.0,50,0.00,,,0.00,,2013-04-17 22:50:00,
2013-04-17 16:00:00,61.0,42.0,30.10,WSW,248,9.0,22.0,50,0.00,,,0.00,,2013-04-17 23:00:00,
2013-04-17 16:10:00,61.6,42.0,30.10,West,269,15.0,22.0,49,0.00,,,0.00,,2013-04-17 23:10:00,
2013-04-17 16:20:00,61.4,42.0,30.09,WSW,243,18.0,21.0,49,0.00,,,0.00,,2013-04-17 23:20:00,
2013-04-17 16:30:00,61.1,42.0,30.09,West,272,9.0,23.0,50,0.00,,,0.00,,2013-04-17 23:30:00,
2013-04-17 16:40:00,60.7,42.0,30.09,West,280,12.0,24.0,50,0.00,,,0.00,,2013-04-17 23:40:00,
2013-04-17 16:50:00,60.3,42.0,30.09,West,271,8.0,24.0,51,0.00,,,0.00,,2013-04-17 23:50:00,
2013-04-17 17:00:00,59.1,41.0,30.09,SSW,210,16.0,26.0,52,0.00,,,0.00,,2013-04-18 00:00:00,
2013-04-17 17:10:00,58.8,42.0,30.09,WNW,288,11.0,24.0,54,0.00,,,0.00,,2013-04-18 00:10:00,
2013-04-17 17:20:00,59.2,42.0,30.08,WNW,286,11.0,21.0,53,0.00,,,0.00,,2013-04-18 00:20:00,
2013-04-17 17:30:00,59.0,42.0,30.08,WSW,239,19.0,24.0,53,0.00,,,0.00,,2013-04-18 00:30:00,
2013-04-17 17:40:00,58.3,42.0,30.08,WSW,246,12.0,23.0,54,0.00,,,0.00,,2013-04-18 00:40:00,
2013-04-17 17:50:00,57.9,41.0,30.08,WNW,298,12.0,22.0,54,0.00,,,0.00,,2013-04-18 00:50:00,
2013-04-17 18:00:00,57.7,41.0,30.08,WNW,298,11.0,22.0,54,0.00,,,0.00,,2013-04-18 01:00:00,
2013-04-17 18:10:00,57.1,42.0,30.09,West,280,12.0,21.0,57,0.00,,,0.00,,2013-04-18 01:10:00,
2013-04-17 18:20:00,57.1,41.0,30.08,WSW,248,12.0,20.0,55,0.00,,,0.00,,2013-04-18 01:20:00,
2013-04-17 18:30:00,56.9,41.0,30.08,West,265,11.0,22.0,56,0.00,,,0.00,,2013-04-18 01:30:00,
2013-04-17 18:40:00,55.1,41.0,30.08,West,269,12.0,20.0,59,0.00,,,0.00,,2013-04-18 01:40:00,
2013-04-17 18:50:00,54.3,41.0,30.08,WSW,246,11.0,17.0,61,0.00,,,0.00,,2013-04-18 01:50:00,
2013-04-17 19:00:00,54.2,41.0,30.08,West,276,14.0,17.0,60,0.00,,,0.00,,2013-04-18 02:00:00,
2013-04-17 19:10:00,54.4,41.0,30.08,WNW,283,8.0,17.0,60,0.00,,,0.00,,2013-04-18 02:10:00,
2013-04-17 19:20:00,54.4,41.0,30.08,WSW,254,11.0,16.0,60,0.00,,,0.00,,2013-04-18 02:20:00,
2013-04-17 19:30:00,54.9,40.0,30.08,WNW,284,9.0,14.0,57,0.00,,,0.00,,2013-04-18 02:30:00,
2013-04-17 19:40:00,55.5,40.0,30.08,WNW,297,3.0,10.0,55,0.00,,,0.00,,2013-04-18 02:40:00,
2013-04-17 19:50:00,55.1,40.0,30.09,West,268,3.0,6.0,56,0.00,,,0.00,,2013-04-18 02:50:00,
2013-04-17 20:00:00,54.0,40.0,30.09,West,278,1.0,4.0,59,0.00,,,0.00,,2013-04-18 03:00:00,
2013-04-17 20:10:00,52.6,40.0,30.09,West,278,0.0,2.0,63,0.00,,,0.00,,2013-04-18 03:10:00,
2013-04-17 20:20:00,50.4,40.0,30.10,West,278,2.0,2.0,68,0.00,,,0.00,,2013-04-18 03:20:00,
2013-04-17 20:30:00,49.1,40.0,30.10,West,278,0.0,2.0,70,0.00,,,0.00,,2013-04-18 03:30:00,
2013-04-17 20:40:00,47.9,39.0,30.11,West,278,2.0,2.0,72,0.00,,,0.00,,2013-04-18 03:40:00,
2013-04-17 20:50:00,47.2,39.0,30.12,West,278,0.0,2.0,73,0.00,,,0.00,,2013-04-18 03:50:00,
2013-04-17 21:00:00,46.4,39.0,30.12,West,278,1.0,3.0,75,0.00,,,0.00,,2013-04-18 04:00:00,
2013-04-17 21:10:00,45.8,39.0,30.13,West,278,0.0,2.0,77,0.00,,,0.00,,2013-04-18 04:10:00,
2013-04-17 21:20:00,45.2,38.0,30.13,West,278,0.0,2.0,77,0.00,,,0.00,,2013-04-18 04:20:00,
2013-04-17 21:30:00,45.2,38.0,30.14,West,278,2.0,3.0,77,0.00,,,0.00,,2013-04-18 04:30:00,
2013-04-17 21:40:00,45.2,38.0,30.14,West,278,0.0,3.0,76,0.00,,,0.00,,2013-04-18 04:40:00,
2013-04-17 21:50:00,45.2,38.0,30.15,West,278,2.0,2.0,76,0.00,,,0.00,,2013-04-18 04:50:00,
2013-04-17 22:00:00,45.2,38.0,30.15,West,278,0.0,2.0,75,0.00,,,0.00,,2013-04-18 05:00:00,
2013-04-17 22:10:00,44.8,37.0,30.15,West,278,2.0,2.0,75,0.00,,,0.00,,2013-04-18 05:10:00,
2013-04-17 22:20:00,45.0,37.0,30.16,West,278,1.0,2.0,74,0.00,,,0.00,,2013-04-18 05:20:00,
2013-04-17 22:30:00,45.0,37.0,30.15,West,278,0.0,2.0,74,0.00,,,0.00,,2013-04-18 05:30:00,
2013-04-17 22:40:00,45.1,37.0,30.16,West,278,0.0,2.0,74,0.00,,,0.00,,2013-04-18 05:40:00,
2013-04-17 22:50:00,45.5,37.0,30.15,West,278,0.0,3.0,73,0.00,,,0.00,,2013-04-18 05:50:00,
2013-04-17 23:00:00,47.4,37.0,30.16,SSE,158,0.0,4.0,67,0.00,,,0.00,,2013-04-18 06:00:00,
2013-04-17 23:10:00,49.4,38.0,30.16,SW,227,3.0,4.0,64,0.00,,,0.00,,2013-04-18 06:10:00,
2013-04-17 23:20:00,48.8,37.0,30.16,SW,225,2.0,4.0,64,0.00,,,0.00,,2013-04-18 06:20:00,
2013-04-17 23:30:00,49.5,36.0,30.16,SW,229,4.0,4.0,60,0.00,,,0.00,,2013-04-18 06:30:00,
2013-04-17 23:40:00,49.9,36.0,30.16,SW,227,1.0,3.0,58,0.00,,,0.00,,2013-04-18 06:40:00,
2013-04-17 23:50:00,49.1,36.0,30.16,SW,227,1.0,3.0,61,0.00,,,0.00,,2013-04-18 06:50:00,